Time;durP1;ratioP1;P1;durP2;ratioP2;P2;SDS_P1;SDS_P2;PMS_P1;PMS_P2;Temp;Humidity;BMP_temperature;BMP_pressure;BME280_temperature;BME280_humidity;BME280_pressure;Samples;Min_cycle;Max_cycle;Signal;HPM_P1;HPM_P2
2022/01/29 00:01:48;;;;;;;9.80;6.93;;;;;;;2.33;100.00;99802.66;5109756;28;20675;-65
2022/01/29 00:04:16;;;;;;;9.47;7.00;;;;;;;2.36;100.00;99805.25;5109709;28;20210;-65
2022/01/29 00:06:43;;;;;;;8.57;6.43;;;;;;;2.33;100.00;99805.25;5107046;28;20300;-65
2022/01/29 00:09:13;;;;;;;9.37;6.50;;;;;;;2.31;100.00;99804.41;5106926;28;20211;-65
2022/01/29 00:11:40;;;;;;;10.97;7.30;;;;;;;2.28;100.00;99801.81;5109929;28;20210;-65
2022/01/29 00:14:08;;;;;;;9.47;6.17;;;;;;;2.30;100.00;99804.41;5109793;28;20210;-65
2022/01/29 00:16:35;;;;;;;10.07;6.40;;;;;;;2.29;100.00;99797.47;5108158;28;20241;-65
2022/01/29 00:19:01;;;;;;;9.93;6.60;;;;;;;2.24;100.00;99794.94;5107101;28;20229;-65
2022/01/29 00:21:28;;;;;;;8.20;6.50;;;;;;;2.20;100.00;99800.19;5109790;28;20216;-65
2022/01/29 00:23:54;;;;;;;9.97;7.23;;;;;;;2.18;100.00;99800.22;5109431;28;20218;-65
2022/01/29 00:26:22;;;;;;;11.27;6.90;;;;;;;2.20;100.00;99792.38;5108788;28;20216;-65
2022/01/29 00:28:51;;;;;;;7.87;6.30;;;;;;;2.18;100.00;99783.69;5106436;28;20301;-65
2022/01/29 00:31:19;;;;;;;10.53;6.70;;;;;;;2.13;100.00;99777.63;5107600;28;20242;-65
2022/01/29 00:33:45;;;;;;;10.10;7.30;;;;;;;2.07;100.00;99781.19;5109833;28;20210;-65
2022/01/29 00:36:12;;;;;;;10.37;7.00;;;;;;;2.04;100.00;99781.22;5108493;28;20214;-65
2022/01/29 00:38:38;;;;;;;10.20;7.03;;;;;;;2.08;100.00;99777.69;5106425;28;20210;-65
2022/01/29 00:41:05;;;;;;;12.20;7.30;;;;;;;2.10;100.00;99762.91;5109364;28;20229;-65
2022/01/29 00:43:31;;;;;;;8.53;6.57;;;;;;;2.14;100.00;99753.31;5109478;28;20229;-65
2022/01/29 00:45:58;;;;;;;11.03;7.37;;;;;;;2.15;100.00;99750.66;5107072;28;20209;-65
2022/01/29 00:48:25;;;;;;;10.90;7.27;;;;;;;2.16;100.00;99739.38;5105603;28;20691;-65
2022/01/29 00:50:52;;;;;;;9.43;7.10;;;;;;;2.16;100.00;99733.28;5109205;28;20694;-65
2022/01/29 00:53:18;;;;;;;10.27;7.63;;;;;;;2.15;100.00;99739.38;5109397;28;20214;-65
2022/01/29 00:55:45;;;;;;;9.60;6.90;;;;;;;2.15;100.00;99747.22;5109685;28;20206;-65
2022/01/29 00:58:11;;;;;;;12.17;7.07;;;;;;;2.12;100.00;99753.31;5108744;28;20218;-65
2022/01/29 01:00:38;;;;;;;12.17;7.43;;;;;;;2.13;100.00;99746.34;5113266;28;20260;-65
2022/01/29 01:03:04;;;;;;;12.33;8.03;;;;;;;2.17;100.00;99741.09;5113515;28;20241;-65
2022/01/29 01:05:32;;;;;;;9.37;7.60;;;;;;;2.17;100.00;99741.09;5113381;28;20206;-65
2022/01/29 01:07:59;;;;;;;9.20;6.83;;;;;;;2.16;100.00;99744.59;5109976;28;20210;-65
2022/01/29 01:10:25;;;;;;;10.10;7.07;;;;;;;2.16;100.00;99744.59;5112954;28;20624;-65
2022/01/29 01:12:52;;;;;;;13.13;8.07;;;;;;;2.21;100.00;99748.00;5113717;28;20201;-65
2022/01/29 01:15:18;;;;;;;10.30;7.50;;;;;;;2.27;100.00;99750.53;5113396;28;20252;-65
2022/01/29 01:17:45;;;;;;;11.00;7.10;;;;;;;2.28;100.00;99744.44;5110356;28;20214;-65
2022/01/29 01:20:12;;;;;;;10.20;7.80;;;;;;;2.32;100.00;99745.28;5112171;28;20233;-65
2022/01/29 01:22:40;;;;;;;11.10;7.13;;;;;;;2.33;100.00;99752.22;5113211;28;20585;-65
2022/01/29 01:25:08;;;;;;;14.37;8.00;;;;;;;2.36;100.00;99747.84;5111174;28;20217;-65
2022/01/29 01:27:35;;;;;;;10.33;7.50;;;;;;;2.35;100.00;99751.34;5110105;28;20297;-65
2022/01/29 01:30:02;;;;;;;12.57;8.13;;;;;;;2.34;100.00;99754.81;5112122;28;20222;-65
2022/01/29 01:32:28;;;;;;;11.17;8.43;;;;;;;2.38;100.00;99761.72;5112749;28;20245;-65
2022/01/29 01:35:05;;;;;;;14.13;8.17;;;;;;;2.45;100.00;99766.00;5112928;28;20214;-65
2022/01/29 01:37:36;;;;;;;13.53;8.37;;;;;;;2.32;100.00;99758.34;5109158;28;20210;-65
2022/01/29 01:40:07;;;;;;;12.83;8.27;;;;;;;2.21;100.00;99762.78;5089157;28;20238;-65
2022/01/29 01:42:33;;;;;;;14.33;8.93;;;;;;;2.28;100.00;99780.09;5113031;28;20576;-65
2022/01/29 01:45:00;;;;;;;12.43;8.43;;;;;;;2.27;100.00;99771.41;5112517;28;20213;-65
2022/01/29 01:47:26;;;;;;;13.27;9.03;;;;;;;2.28;100.00;99770.53;5109496;28;20211;-65
2022/01/29 01:49:52;;;;;;;12.10;8.40;;;;;;;2.29;100.00;99767.06;5110998;28;20219;-65
2022/01/29 01:52:19;;;;;;;13.33;8.57;;;;;;;2.34;100.00;99767.00;5112721;28;20210;-65
2022/01/29 01:54:46;;;;;;;13.10;8.50;;;;;;;2.28;100.00;99754.88;5112324;28;20217;-65
2022/01/29 01:57:14;;;;;;;12.40;8.30;;;;;;;2.35;100.00;99760.91;5105709;28;20669;-65
2022/01/29 01:59:41;;;;;;;11.63;8.10;;;;;;;2.41;100.00;99764.31;5095929;28;20310;-65
2022/01/29 02:02:07;;;;;;;11.97;7.93;;;;;;;2.42;100.00;99762.56;5108192;28;20214;-65
2022/01/29 02:04:34;;;;;;;13.37;8.77;;;;;;;2.42;100.00;99753.00;5104905;28;20226;-66
2022/01/29 02:07:02;;;;;;;13.47;7.80;;;;;;;2.42;100.00;99741.69;5104638;28;20211;-65
2022/01/29 02:09:30;;;;;;;13.20;8.53;;;;;;;2.33;100.00;99727.00;5091557;28;20206;-65
2022/01/29 02:11:58;;;;;;;13.90;8.70;;;;;;;2.33;100.00;99727.00;5108477;27;20217;-65
2022/01/29 02:14:30;;;;;;;13.30;8.80;;;;;;;2.27;100.00;99711.41;5112196;28;20217;-65
2022/01/29 02:16:57;;;;;;;12.97;8.67;;;;;;;2.26;100.00;99708.84;5109534;28;20216;-64
2022/01/29 02:19:23;;;;;;;14.33;9.57;;;;;;;2.20;100.00;99714.13;5112050;28;20240;-65
2022/01/29 02:21:51;;;;;;;15.97;9.47;;;;;;;2.28;100.00;99702.69;5111939;28;20693;-65
2022/01/29 02:24:18;;;;;;;13.47;9.37;;;;;;;2.27;100.00;99695.75;5111370;28;20214;-65
2022/01/29 02:26:44;;;;;;;13.50;9.17;;;;;;;2.30;100.00;99687.91;5108290;28;20222;-65
2022/01/29 02:29:11;;;;;;;14.50;8.93;;;;;;;2.30;100.00;99687.03;5111985;28;20697;-65
2022/01/29 02:31:46;;;;;;;16.17;9.47;;;;;;;2.25;100.00;99691.44;5111674;28;20213;-64
2022/01/29 02:34:12;;;;;;;14.53;9.63;;;;;;;2.20;100.00;99688.03;5110970;28;20213;-64
2022/01/29 02:36:39;;;;;;;14.23;9.13;;;;;;;2.12;100.00;99682.03;5108462;28;20221;-65
2022/01/29 02:39:06;;;;;;;14.57;9.77;;;;;;;2.02;100.00;99683.03;5111495;28;20210;-65
2022/01/29 02:41:34;;;;;;;16.30;9.93;;;;;;;2.04;100.00;99676.91;5109584;28;20238;-65
2022/01/29 02:44:04;;;;;;;14.03;9.00;;;;;;;2.10;100.00;99675.97;5110827;28;20267;-65
2022/01/29 02:46:42;;;;;;;12.80;8.83;;;;;;;2.10;100.00;99671.63;5108491;28;20297;-65
2022/01/29 02:49:09;;;;;;;12.50;8.67;;;;;;;2.08;100.00;99662.94;5111648;28;20263;-65
2022/01/29 02:51:35;;;;;;;13.13;8.37;;;;;;;2.00;100.00;99651.75;5111617;28;20217;-64
2022/01/29 02:54:02;;;;;;;12.93;8.77;;;;;;;1.97;100.00;99654.38;5108960;28;20218;-65
2022/01/29 02:56:29;;;;;;;13.47;8.60;;;;;;;1.93;100.00;99647.47;5109405;28;20695;-65
2022/01/29 02:58:56;;;;;;;14.07;8.57;;;;;;;1.82;100.00;99633.69;5111301;28;20236;-65
2022/01/29 03:01:22;;;;;;;13.57;9.17;;;;;;;1.79;100.00;99630.25;5110875;28;20579;-64
2022/01/29 03:03:49;;;;;;;12.50;8.23;;;;;;;1.75;100.00;99616.41;5109409;28;20580;-65
2022/01/29 03:06:15;;;;;;;11.07;7.23;;;;;;;1.71;100.00;99613.84;5109099;28;20226;-64
2022/01/29 03:08:42;;;;;;;12.57;8.30;;;;;;;1.65;100.00;99609.56;5109544;28;20218;-64
2022/01/29 03:11:08;;;;;;;13.43;9.13;;;;;;;1.64;100.00;99613.03;5110745;28;20214;-65
2022/01/29 03:13:36;;;;;;;12.53;7.77;;;;;;;1.66;100.00;99621.69;5110995;28;20206;-65
2022/01/29 03:16:02;;;;;;;13.30;8.63;;;;;;;1.68;100.00;99609.53;5106706;28;20249;-64
2022/01/29 03:18:29;;;;;;;11.30;8.33;;;;;;;1.66;100.00;99607.81;5110685;28;20217;-64
2022/01/29 03:20:55;;;;;;;11.70;8.10;;;;;;;1.75;100.00;99600.75;5110339;28;20237;-65
2022/01/29 03:23:22;;;;;;;13.53;8.60;;;;;;;1.83;100.00;99606.75;5109866;28;20210;-64
2022/01/29 03:25:48;;;;;;;13.43;8.87;;;;;;;1.91;100.00;99602.28;5107672;28;20207;-65
2022/01/29 03:28:15;;;;;;;13.70;9.20;;;;;;;1.96;100.00;99600.50;5110828;28;20210;-65
2022/01/29 03:30:43;;;;;;;10.90;8.13;;;;;;;2.01;100.00;99603.03;5110470;28;20667;-65
2022/01/29 03:33:09;;;;;;;11.57;8.47;;;;;;;2.01;100.00;99603.91;5109521;28;20213;-65
2022/01/29 03:35:36;;;;;;;12.90;8.77;;;;;;;2.03;100.00;99596.94;5106147;28;20226;-65
2022/01/29 03:38:02;;;;;;;11.30;7.87;;;;;;;2.03;100.00;99596.94;5110587;28;20217;-64
2022/01/29 03:40:29;;;;;;;13.33;8.37;;;;;;;2.00;100.00;99586.56;5110126;28;20707;-65
2022/01/29 03:43:03;;;;;;;13.33;8.60;;;;;;;2.01;100.00;99590.88;5110298;28;20213;-65
2022/01/29 03:45:29;;;;;;;12.17;8.13;;;;;;;2.05;100.00;99600.41;5105273;28;20701;-64
2022/01/29 03:47:57;;;;;;;12.33;7.77;;;;;;;2.05;100.00;99595.19;5110360;28;20217;-65
2022/01/29 03:50:24;;;;;;;13.77;9.10;;;;;;;2.04;100.00;99593.47;5110395;28;20217;-64
2022/01/29 03:52:50;;;;;;;13.40;8.73;;;;;;;2.07;100.00;99593.41;5109827;28;20206;-65
2022/01/29 03:55:17;;;;;;;13.30;8.30;;;;;;;2.10;100.00;99603.84;5106563;28;20671;-65
2022/01/29 03:57:43;;;;;;;10.97;8.10;;;;;;;2.08;100.00;99600.34;5110390;28;20242;-65
2022/01/29 04:00:11;;;;;;;12.27;7.83;;;;;;;2.05;100.00;99595.19;5108185;28;20225;-65
2022/01/29 04:02:37;;;;;;;12.20;8.07;;;;;;;2.07;100.00;99593.41;5109812;28;20213;-64
2022/01/29 04:05:06;;;;;;;12.33;8.27;;;;;;;2.06;100.00;99590.81;5106133;28;20218;-65
2022/01/29 04:07:32;;;;;;;13.00;9.13;;;;;;;2.06;100.00;99586.47;5110039;28;20211;-65
2022/01/29 04:09:59;;;;;;;15.57;9.87;;;;;;;2.11;100.00;99569.03;5109886;28;20217;-65
2022/01/29 04:12:28;;;;;;;13.20;9.00;;;;;;;2.10;100.00;99575.13;5109586;28;20255;-65
2022/01/29 04:14:57;;;;;;;13.47;9.13;;;;;;;2.09;100.00;99573.38;5103973;28;20325;-64
2022/01/29 04:17:24;;;;;;;13.53;8.97;;;;;;;2.09;100.00;99565.56;5109949;28;20228;-64
2022/01/29 04:19:50;;;;;;;16.47;10.00;;;;;;;2.06;100.00;99570.84;5109823;28;20232;-65
2022/01/29 04:22:18;;;;;;;15.80;10.27;;;;;;;2.07;100.00;99577.78;5109531;28;20238;-64
2022/01/29 04:24:44;;;;;;;15.90;10.50;;;;;;;2.04;100.00;99579.56;5106038;28;20210;-64
2022/01/29 04:27:17;;;;;;;13.67;9.13;;;;;;;2.06;100.00;99576.06;5108274;28;20221;-65
2022/01/29 04:29:54;;;;;;;16.33;9.47;;;;;;;2.04;100.00;99587.38;5109332;28;20218;-65
2022/01/29 04:32:27;;;;;;;13.27;9.50;;;;;;;2.09;100.00;99581.22;5106226;28;20213;-65
2022/01/29 04:34:53;;;;;;;16.07;9.60;;;;;;;2.12;100.00;99589.00;5107791;28;20222;-65
2022/01/29 04:37:21;;;;;;;16.90;9.00;;;;;;;2.16;100.00;99577.69;5109500;28;20206;-64
2022/01/29 04:39:48;;;;;;;11.33;8.17;;;;;;;2.18;100.00;99556.75;5109580;28;20206;-64
2022/01/29 04:42:14;;;;;;;13.33;9.23;;;;;;;2.27;100.00;99552.28;5106830;28;20234;-64
2022/01/29 04:44:40;;;;;;;13.03;9.10;;;;;;;2.28;100.00;99560.97;5107837;28;20221;-65
2022/01/29 04:47:07;;;;;;;14.70;9.67;;;;;;;2.26;100.00;99552.31;5109110;28;20218;-64
2022/01/29 04:49:34;;;;;;;12.63;8.97;;;;;;;2.29;100.00;99562.69;5109416;28;20221;-65
2022/01/29 04:52:00;;;;;;;14.40;9.27;;;;;;;2.25;100.00;99574.06;5105780;28;20213;-65
2022/01/29 04:54:28;;;;;;;12.70;9.27;;;;;;;2.27;100.00;99567.94;5107148;28;20206;-65
2022/01/29 04:56:54;;;;;;;15.10;8.83;;;;;;;2.30;100.00;99573.13;5109439;28;20214;-65
2022/01/29 04:59:21;;;;;;;11.00;8.27;;;;;;;2.37;100.00;99572.16;5109263;28;20213;-65
2022/01/29 05:01:47;;;;;;;13.93;9.10;;;;;;;2.44;100.00;99575.56;5107656;28;20234;-65
2022/01/29 05:04:13;;;;;;;14.87;9.33;;;;;;;2.38;100.00;99579.09;5106658;28;20218;-65
2022/01/29 05:06:40;;;;;;;11.97;8.83;;;;;;;2.35;100.00;99593.94;5109153;28;20213;-64
2022/01/29 05:09:09;;;;;;;15.30;10.70;;;;;;;2.35;100.00;99594.81;5109166;28;20214;-65
2022/01/29 05:11:37;;;;;;;17.73;11.80;;;;;;;2.30;100.00;99595.72;5107620;28;20300;-65
2022/01/29 05:14:07;;;;;;;17.43;12.37;;;;;;;2.37;100.00;99593.03;5107398;28;20213;-65
2022/01/29 05:16:53;;;;;;;15.40;11.43;;;;;;;2.38;100.00;99605.19;5109259;28;20245;-65
2022/01/29 05:27:50;;;;;;;21.90;14.00;;;;;;;2.26;100.00;99610.56;5022874;28;20223;-65
2022/01/29 05:30:16;;;;;;;25.00;16.13;;;;;;;2.23;100.00;99601.91;5109278;28;20206;-65
2022/01/29 05:32:43;;;;;;;23.20;14.50;;;;;;;2.28;100.00;99600.97;5108828;28;20210;-65
2022/01/29 05:35:10;;;;;;;21.20;14.17;;;;;;;2.21;100.00;99604.53;5108058;28;20590;-65
2022/01/29 05:37:36;;;;;;;22.93;14.70;;;;;;;2.24;100.00;99604.50;5106016;28;20215;-65
2022/01/29 05:40:03;;;;;;;22.27;14.97;;;;;;;2.21;100.00;99594.09;5108904;28;20206;-65
2022/01/29 05:42:30;;;;;;;22.33;14.33;;;;;;;2.24;100.00;99577.53;5108987;28;20241;-65
2022/01/29 05:44:57;;;;;;;24.13;15.33;;;;;;;2.30;100.00;99578.34;5109852;28;20210;-65
2022/01/29 05:47:24;;;;;;;22.87;15.00;;;;;;;2.31;100.00;99576.56;5098230;28;20217;-65
2022/01/29 05:49:50;;;;;;;21.90;14.10;;;;;;;2.38;100.00;99579.09;5112368;28;20663;-65
2022/01/29 05:52:17;;;;;;;22.80;14.53;;;;;;;2.39;100.00;99580.81;5112915;28;20214;-65
2022/01/29 05:54:43;;;;;;;19.80;14.17;;;;;;;2.38;100.00;99586.91;5112256;28;20221;-65
2022/01/29 05:57:10;;;;;;;25.67;14.57;;;;;;;2.36;100.00;99586.09;5108910;28;20218;-64
2022/01/29 05:59:36;;;;;;;22.93;14.77;;;;;;;2.40;100.00;99571.25;5112411;28;20267;-64
2022/01/29 06:02:04;;;;;;;19.93;13.63;;;;;;;2.41;100.00;99565.13;5112058;28;20731;-65
2022/01/29 06:04:31;;;;;;;20.13;14.43;;;;;;;2.40;100.00;99568.63;5112020;28;20214;-64
2022/01/29 06:06:57;;;;;;;22.43;14.63;;;;;;;2.29;100.00;99574.00;5108473;28;20219;-65
2022/01/29 06:09:24;;;;;;;22.40;13.90;;;;;;;2.25;100.00;99581.88;5110832;28;20214;-64
2022/01/29 06:11:50;;;;;;;22.17;13.83;;;;;;;2.15;100.00;99583.75;5112288;28;20217;-65
2022/01/29 06:14:17;;;;;;;21.43;14.33;;;;;;;2.17;100.00;99586.34;5111786;28;20214;-65
2022/01/29 06:16:43;;;;;;;20.83;14.23;;;;;;;2.24;100.00;99575.81;5108845;28;20589;-65
2022/01/29 06:19:11;;;;;;;21.00;13.67;;;;;;;2.34;100.00;99577.41;5111232;28;20214;-65
2022/01/29 06:21:38;;;;;;;21.27;12.80;;;;;;;2.38;100.00;99567.81;5111724;28;20240;-65
2022/01/29 06:24:05;;;;;;;21.57;13.67;;;;;;;2.42;100.00;99572.06;5111884;28;20587;-65
2022/01/29 06:26:31;;;;;;;20.17;12.70;;;;;;;2.32;100.00;99568.72;5108802;28;20215;-65
2022/01/29 06:28:59;;;;;;;21.00;14.80;;;;;;;2.33;100.00;99574.84;5111043;28;20582;-65
2022/01/29 06:31:25;;;;;;;19.30;13.23;;;;;;;2.32;100.00;99563.53;5111761;28;20221;-66
2022/01/29 06:33:52;;;;;;;21.17;12.73;;;;;;;2.33;100.00;99553.97;5112101;28;20221;-65
2022/01/29 06:36:20;;;;;;;21.83;14.20;;;;;;;2.25;100.00;99556.66;5107662;28;20217;-65
2022/01/29 06:38:46;;;;;;;21.70;13.90;;;;;;;2.23;100.00;99558.44;5109676;28;20215;-65
2022/01/29 06:41:13;;;;;;;22.67;14.50;;;;;;;2.34;100.00;99572.19;5111703;28;20221;-65
2022/01/29 06:43:40;;;;;;;22.97;14.37;;;;;;;2.38;100.00;99586.91;5111799;28;20210;-64
2022/01/29 06:46:06;;;;;;;20.70;13.30;;;;;;;2.44;100.00;99592.06;5109245;28;20524;-64
2022/01/29 06:48:33;;;;;;;23.27;13.77;;;;;;;2.43;100.00;99590.31;5109748;28;20214;-65
2022/01/29 06:50:59;;;;;;;22.30;14.00;;;;;;;2.39;100.00;99599.06;5111595;28;20216;-65
2022/01/29 06:53:27;;;;;;;23.80;14.23;;;;;;;2.44;100.00;99606.88;5111386;28;20221;-65
2022/01/29 06:55:53;;;;;;;19.57;12.97;;;;;;;2.43;100.00;99595.56;5108420;28;20217;-65
2022/01/29 06:58:20;;;;;;;22.93;13.77;;;;;;;2.38;100.00;99594.75;5108978;28;20714;-65
2022/01/29 07:00:46;;;;;;;19.23;13.67;;;;;;;2.41;100.00;99581.66;5109031;28;20206;-65
2022/01/29 07:03:13;;;;;;;25.43;13.50;;;;;;;2.55;100.00;99581.44;5103196;28;20234;-65
2022/01/29 07:05:39;;;;;;;20.67;13.97;;;;;;;2.60;100.00;99574.44;5109948;28;20214;-65
2022/01/29 07:08:06;;;;;;;21.90;14.10;;;;;;;2.61;100.00;99566.56;5108588;28;20214;-65
2022/01/29 07:10:34;;;;;;;20.17;12.30;;;;;;;2.63;100.00;99569.19;5111052;28;20214;-66
2022/01/29 07:13:00;;;;;;;20.37;13.43;;;;;;;2.59;100.00;99563.13;5111586;28;20210;-65
2022/01/29 07:15:27;;;;;;;18.87;13.07;;;;;;;2.69;100.00;99559.47;5110212;28;20238;-65
2022/01/29 07:17:53;;;;;;;20.27;13.43;;;;;;;2.73;100.00;99562.91;5108039;28;20214;-65
2022/01/29 07:20:19;;;;;;;18.23;12.23;;;;;;;2.75;100.00;99548.94;5111022;28;20225;-65
2022/01/29 07:22:46;;;;;;;16.40;11.77;;;;;;;2.80;100.00;99552.34;5110809;28;20229;-65
2022/01/29 07:25:12;;;;;;;19.93;12.67;;;;;;;2.83;100.00;99562.75;5110422;28;20214;-65
2022/01/29 07:27:40;;;;;;;18.57;13.27;;;;;;;2.84;100.00;99548.81;5105120;28;20215;-65
2022/01/29 07:30:08;;;;;;;20.67;13.17;;;;;;;2.89;100.00;99548.72;5110596;28;20206;-65
2022/01/29 07:32:35;;;;;;;17.23;12.20;;;;;;;2.89;100.00;99541.75;5102758;28;20225;-65
2022/01/29 07:35:02;;;;;;;20.03;12.70;;;;;;;2.90;100.00;99530.44;5108716;28;20206;-65
2022/01/29 07:37:28;;;;;;;17.03;11.30;;;;;;;2.95;100.00;99530.34;5105195;28;20207;-65
2022/01/29 07:39:54;;;;;;;16.57;11.30;;;;;;;2.96;100.00;99537.28;5109173;28;20218;-65
2022/01/29 07:42:21;;;;;;;15.57;11.00;;;;;;;3.00;100.00;99550.28;5108800;28;20248;-65
2022/01/29 07:44:49;;;;;;;16.37;11.77;;;;;;;3.04;100.00;99546.72;5109114;28;20214;-65
2022/01/29 07:47:15;;;;;;;16.33;10.83;;;;;;;3.07;100.00;99536.22;5102536;28;20592;-66
2022/01/29 07:49:42;;;;;;;14.30;10.00;;;;;;;3.12;100.00;99531.78;5108767;28;20214;-65
2022/01/29 07:52:08;;;;;;;16.23;10.03;;;;;;;3.16;100.00;99529.97;5109032;28;20225;-65
2022/01/29 07:54:34;;;;;;;14.67;9.90;;;;;;;3.20;100.00;99532.53;5107262;28;20206;-65
2022/01/29 07:57:01;;;;;;;13.77;9.93;;;;;;;3.20;100.00;99540.38;5105507;28;20219;-65
2022/01/29 07:59:27;;;;;;;14.70;9.73;;;;;;;3.27;100.00;99528.03;5107881;28;20225;-65
2022/01/29 08:01:55;;;;;;;13.73;9.20;;;;;;;3.29;100.00;99521.91;5108777;28;20597;-65
2022/01/29 08:04:24;;;;;;;14.53;9.33;;;;;;;3.28;100.00;99529.75;5106128;28;20214;-65
2022/01/29 08:06:51;;;;;;;13.87;9.47;;;;;;;3.32;100.00;99529.69;5105051;28;20225;-64
2022/01/29 08:09:17;;;;;;;15.83;9.50;;;;;;;3.35;100.00;99527.00;5107774;28;20212;-64
2022/01/29 08:11:43;;;;;;;13.67;9.17;;;;;;;3.40;100.00;99511.22;5108663;28;20214;-64
2022/01/29 08:14:10;;;;;;;10.77;8.00;;;;;;;3.46;100.00;99514.59;5108726;28;20202;-64
2022/01/29 08:16:37;;;;;;;10.20;8.17;;;;;;;3.52;100.00;99511.88;5099050;28;20249;-64
2022/01/29 08:19:05;;;;;;;9.90;7.30;;;;;;;3.58;100.00;99501.31;5107154;28;20220;-64
2022/01/29 08:21:31;;;;;;;10.37;7.10;;;;;;;3.67;100.00;99513.34;5106558;28;20213;-65
2022/01/29 08:23:57;;;;;;;6.27;5.60;;;;;;;3.74;100.00;99494.84;5108414;28;20210;-65
2022/01/29 08:26:24;;;;;;;7.87;6.10;;;;;;;3.79;100.00;99489.56;5106184;28;20226;-64
2022/01/29 08:28:50;;;;;;;9.43;5.40;;;;;;;3.88;100.00;99492.84;5106538;28;20219;-65
2022/01/29 08:31:17;;;;;;;7.73;5.63;;;;;;;4.00;100.00;99492.56;5108249;28;20224;-64
2022/01/29 08:33:43;;;;;;;7.37;5.23;;;;;;;4.13;99.35;99495.75;5107975;28;20214;-64
2022/01/29 08:36:11;;;;;;;7.00;4.93;;;;;;;4.26;99.01;99495.47;5106190;28;20221;-64
2022/01/29 08:38:38;;;;;;;6.73;4.90;;;;;;;4.41;98.18;99484.63;5106171;28;20618;-64
2022/01/29 08:41:05;;;;;;;6.97;4.53;;;;;;;4.57;97.62;99493.84;5108115;28;20214;-64
2022/01/29 08:43:33;;;;;;;5.70;4.50;;;;;;;4.64;96.97;99497.19;5107807;28;20242;-64
2022/01/29 08:46:00;;;;;;;6.33;4.10;;;;;;;4.65;96.77;99494.53;5106568;28;20210;-64
2022/01/29 08:48:27;;;;;;;5.70;4.13;;;;;;;4.67;96.16;99491.88;5104358;28;20218;-64
2022/01/29 08:50:53;;;;;;;5.10;4.20;;;;;;;4.70;96.05;99489.19;5108195;28;20589;-64
2022/01/29 08:53:21;;;;;;;5.27;4.17;;;;;;;4.70;95.94;99492.66;5108284;28;20214;-64
2022/01/29 08:55:48;;;;;;;5.43;4.10;;;;;;;4.72;95.08;99490.88;5106699;28;20225;-64
2022/01/29 08:58:15;;;;;;;4.77;3.73;;;;;;;4.60;92.98;99485.94;5105267;28;20215;-64
2022/01/29 09:00:44;;;;;;;4.13;3.20;;;;;;;4.60;92.05;99490.31;5108303;28;20209;-64
2022/01/29 09:03:12;;;;;;;3.77;3.10;;;;;;;4.57;91.90;99480.75;5108227;28;20238;-64
2022/01/29 09:05:38;;;;;;;3.53;3.10;;;;;;;4.56;89.64;99479.03;5106438;28;20211;-64
2022/01/29 09:08:06;;;;;;;4.07;2.83;;;;;;;4.49;88.70;99480.09;5105420;28;20207;-64
2022/01/29 09:10:35;;;;;;;5.57;3.30;;;;;;;4.57;89.17;99488.63;5107663;28;20206;-65
2022/01/29 09:13:01;;;;;;;2.93;2.50;;;;;;;4.71;88.26;99478.66;5107558;28;20215;-64
2022/01/29 09:15:28;;;;;;;3.93;2.90;;;;;;;4.81;87.69;99477.53;5105439;28;20246;-64
2022/01/29 09:17:54;;;;;;;3.33;2.73;;;;;;;4.82;86.97;99479.25;5104928;28;20215;-64
2022/01/29 09:20:21;;;;;;;4.63;3.03;;;;;;;4.97;86.82;99473.66;5111438;28;20216;-65
2022/01/29 09:22:47;;;;;;;3.53;2.83;;;;;;;5.06;86.43;99475.19;5111808;28;20238;-64
2022/01/29 09:25:14;;;;;;;3.87;2.80;;;;;;;5.20;86.67;99473.88;5110903;28;20210;-65
2022/01/29 09:27:41;;;;;;;3.20;2.57;;;;;;;5.27;85.98;99466.72;5108420;28;20222;-65
2022/01/29 09:30:09;;;;;;;4.30;2.43;;;;;;;5.34;85.80;99465.66;5111794;28;20215;-65
2022/01/29 09:32:36;;;;;;;3.83;2.47;;;;;;;5.49;86.25;99471.34;5106303;28;20225;-64
2022/01/29 09:35:02;;;;;;;3.03;2.47;;;;;;;5.60;85.37;99474.53;5111246;28;20216;-64
2022/01/29 09:37:29;;;;;;;3.83;2.70;;;;;;;5.73;85.52;99465.41;5108463;28;20210;-64
2022/01/29 09:39:55;;;;;;;4.63;2.60;;;;;;;5.85;85.63;99459.84;5109953;28;20214;-65
2022/01/29 09:42:22;;;;;;;4.03;2.87;;;;;;;5.94;85.08;99459.59;5111879;28;20232;-65
2022/01/29 09:44:52;;;;;;;3.53;2.70;;;;;;;6.06;85.35;99448.72;5111312;28;20211;-64
2022/01/29 09:47:21;;;;;;;3.33;2.53;;;;;;;6.15;83.66;99451.03;5104269;28;20300;-64
2022/01/29 09:49:48;;;;;;;3.47;2.60;;;;;;;6.21;84.49;99452.59;5110118;28;20226;-65
2022/01/29 09:52:14;;;;;;;4.73;2.70;;;;;;;6.23;81.90;99446.41;5111588;28;20212;-65
2022/01/29 09:54:41;;;;;;;3.33;2.50;;;;;;;6.29;82.61;99451.47;5111400;28;20221;-64
2022/01/29 09:57:08;;;;;;;4.47;3.20;;;;;;;6.34;81.43;99443.47;5107843;28;20213;-64
2022/01/29 09:59:34;;;;;;;3.73;2.73;;;;;;;6.32;81.30;99446.13;5111401;28;20220;-64
2022/01/29 10:02:02;;;;;;;3.77;2.83;;;;;;;6.45;81.58;99450.09;5111224;28;20218;-64
2022/01/29 10:04:45;;;;;;;3.40;2.93;;;;;;;6.44;81.09;99450.13;5110981;28;20240;-64
2022/01/29 10:07:16;;;;;;;5.33;2.97;;;;;;;6.21;82.19;99442.97;5107919;28;20209;-64
2022/01/29 10:09:43;;;;;;;3.50;2.90;;;;;;;6.19;83.21;99444.81;5110935;28;20212;-64
2022/01/29 10:12:17;;;;;;;5.00;3.00;;;;;;;6.09;83.63;99448.59;5110946;28;20225;-64
2022/01/29 10:14:52;;;;;;;5.57;3.57;;;;;;;6.04;83.76;99444.41;5106936;28;20243;-64
2022/01/29 10:17:40;;;;;;;4.07;3.30;;;;;;;6.13;84.81;99442.38;5087348;28;20216;-64
2022/01/29 10:20:08;;;;;;;6.07;3.53;;;;;;;6.19;83.69;99431.69;5110784;28;20552;-64
2022/01/29 10:22:34;;;;;;;3.97;3.30;;;;;;;6.15;84.03;99430.03;5107275;28;20232;-64
2022/01/29 10:25:05;;;;;;;3.47;2.90;;;;;;;6.22;84.51;99422.84;5110019;28;20215;-65
2022/01/29 10:27:32;;;;;;;5.03;3.20;;;;;;;6.45;84.08;99421.19;5110232;28;20239;-65
2022/01/29 10:30:00;;;;;;;4.60;3.10;;;;;;;6.52;83.96;99424.47;5109307;28;20630;-64
2022/01/29 10:32:28;;;;;;;3.90;2.80;;;;;;;6.75;82.92;99414.94;5106972;28;20270;-64
2022/01/29 10:34:58;;;;;;;4.27;3.10;;;;;;;6.93;82.53;99409.06;5109154;28;20214;-64
2022/01/29 10:37:26;;;;;;;5.33;3.27;;;;;;;7.05;81.83;99403.38;5110232;28;20215;-64
2022/01/29 10:39:54;;;;;;;4.17;2.63;;;;;;;7.12;82.79;99404.88;5110512;28;20222;-64
2022/01/29 10:42:24;;;;;;;3.17;2.57;;;;;;;7.05;82.97;99407.75;5106431;28;20221;-64
2022/01/29 10:44:52;;;;;;;4.43;2.83;;;;;;;7.09;83.75;99407.59;5110083;28;20224;-64
2022/01/29 10:47:19;;;;;;;3.53;3.10;;;;;;;7.04;82.88;99417.44;5107145;28;20206;-64
2022/01/29 10:49:53;;;;;;;3.30;3.00;;;;;;;6.94;84.19;99402.88;5109491;28;20217;-65
2022/01/29 10:52:28;;;;;;;4.27;3.27;;;;;;;7.05;84.66;99406.00;5106858;28;20217;-65
2022/01/29 10:54:59;;;;;;;4.67;2.93;;;;;;;7.04;84.58;99398.16;5107637;28;20210;-65
2022/01/29 10:57:32;;;;;;;3.80;2.57;;;;;;;6.97;86.14;99408.00;5109105;28;20216;-65
2022/01/29 10:59:59;;;;;;;3.97;3.00;;;;;;;7.04;85.41;99401.66;5103842;28;20214;-64
2022/01/29 11:02:30;;;;;;;3.43;2.60;;;;;;;7.04;86.96;99406.91;5105861;28;20228;-65
2022/01/29 11:05:00;;;;;;;3.57;2.63;;;;;;;7.01;86.03;99416.69;5076189;28;20219;-65
2022/01/29 11:07:30;;;;;;;3.30;2.77;;;;;;;6.97;87.13;99415.91;5088009;28;20695;-65
2022/01/29 11:09:57;;;;;;;3.17;2.47;;;;;;;7.01;87.21;99412.25;5095031;28;20293;-65
2022/01/29 11:12:27;;;;;;;3.50;2.53;;;;;;;7.01;88.38;99393.88;5095667;28;20210;-65
2022/01/29 11:14:55;;;;;;;2.87;2.23;;;;;;;7.09;87.39;99393.59;5094728;28;20468;-65
2022/01/29 11:17:24;;;;;;;4.20;2.63;;;;;;;7.08;86.18;99390.09;5093876;28;20702;-65
2022/01/29 11:19:51;;;;;;;3.17;2.67;;;;;;;7.13;86.71;99393.44;5096262;28;20218;-65
2022/01/29 11:22:21;;;;;;;4.13;2.70;;;;;;;7.17;88.10;99384.53;5095732;28;20235;-65
2022/01/29 11:24:55;;;;;;;4.33;2.87;;;;;;;7.03;87.06;99383.31;5095214;28;20246;-65
2022/01/29 11:27:23;;;;;;;3.80;3.00;;;;;;;7.00;88.01;99384.28;5093877;28;20242;-65
2022/01/29 11:29:57;;;;;;;4.43;2.70;;;;;;;6.96;88.41;99376.56;5097477;28;20214;-65
2022/01/29 11:32:42;;;;;;;3.63;2.43;;;;;;;7.07;88.82;99375.25;5095533;28;20249;-65
2022/01/29 11:35:14;;;;;;;4.37;2.60;;;;;;;7.10;89.51;99380.41;5095635;28;20214;-65
2022/01/29 11:37:54;;;;;;;3.33;2.50;;;;;;;6.95;89.13;99380.94;5097616;28;20577;-65
2022/01/29 11:40:28;;;;;;;2.60;2.40;;;;;;;6.95;90.33;99375.69;5095391;28;20657;-65